sensor_id;sensor_type;location;lat;lon;timestamp;pressure;altitude;pressure_sealevel;temperature;humidity
78509;BME280;67802;50.846;7.958;2023-11-19T00:01:07;97367.47;;;18.81;38.80
78509;BME280;67802;50.846;7.958;2023-11-19T00:03:32;97363.03;;;18.81;38.73
78509;BME280;67802;50.846;7.958;2023-11-19T00:05:58;97362.78;;;18.84;38.56
78509;BME280;67802;50.846;7.958;2023-11-19T00:08:24;97361.09;;;18.83;38.55
78509;BME280;67802;50.846;7.958;2023-11-19T00:10:50;97361.09;;;18.83;38.66
78509;BME280;67802;50.846;7.958;2023-11-19T00:13:16;97343.66;;;18.82;38.61
78509;BME280;67802;50.846;7.958;2023-11-19T00:15:41;97351.81;;;18.79;38.57
78509;BME280;67802;50.846;7.958;2023-11-19T00:18:07;97359.69;;;18.79;38.74
78509;BME280;67802;50.846;7.958;2023-11-19T00:20:32;97361.63;;;18.77;38.72
78509;BME280;67802;50.846;7.958;2023-11-19T00:22:58;97355.66;;;18.75;38.68
78509;BME280;67802;50.846;7.958;2023-11-19T00:25:23;97352.19;;;18.75;38.78
78509;BME280;67802;50.846;7.958;2023-11-19T00:27:49;97336.41;;;18.75;38.78
78509;BME280;67802;50.846;7.958;2023-11-19T00:30:15;97329.34;;;18.75;38.65
78509;BME280;67802;50.846;7.958;2023-11-19T00:32:41;97325.91;;;18.75;38.67
78509;BME280;67802;50.846;7.958;2023-11-19T00:35:07;97341.41;;;18.78;38.83
78509;BME280;67802;50.846;7.958;2023-11-19T00:37:33;97333.38;;;18.79;38.78
78509;BME280;67802;50.846;7.958;2023-11-19T00:39:58;97317.47;;;18.81;38.76
78509;BME280;67802;50.846;7.958;2023-11-19T00:42:24;97307.78;;;18.81;38.66
78509;BME280;67802;50.846;7.958;2023-11-19T00:44:50;97311.81;;;18.86;38.62
78509;BME280;67802;50.846;7.958;2023-11-19T00:47:15;97315.16;;;18.88;38.69
78509;BME280;67802;50.846;7.958;2023-11-19T00:49:40;97302.69;;;18.90;38.65
78509;BME280;67802;50.846;7.958;2023-11-19T00:52:05;97303.50;;;18.90;38.48
78509;BME280;67802;50.846;7.958;2023-11-19T00:54:31;97300.75;;;18.92;38.43
78509;BME280;67802;50.846;7.958;2023-11-19T00:56:57;97301.56;;;18.92;38.44
78509;BME280;67802;50.846;7.958;2023-11-19T00:59:22;97304.09;;;18.94;38.41
78509;BME280;67802;50.846;7.958;2023-11-19T01:01:47;97289.97;;;18.95;38.56
78509;BME280;67802;50.846;7.958;2023-11-19T01:04:13;97295.25;;;18.95;38.51
78509;BME280;67802;50.846;7.958;2023-11-19T01:06:39;97291.66;;;18.96;38.38
78509;BME280;67802;50.846;7.958;2023-11-19T01:09:05;97294.38;;;18.94;38.38
78509;BME280;67802;50.846;7.958;2023-11-19T01:11:30;97289.13;;;18.94;38.43
78509;BME280;67802;50.846;7.958;2023-11-19T01:13:55;97285.69;;;18.94;38.39
78509;BME280;67802;50.846;7.958;2023-11-19T01:16:21;97282.19;;;18.93;38.32
78509;BME280;67802;50.846;7.958;2023-11-19T01:18:47;97281.38;;;18.93;38.38
78509;BME280;67802;50.846;7.958;2023-11-19T01:21:12;97277.06;;;18.92;38.42
78509;BME280;67802;50.846;7.958;2023-11-19T01:23:40;97272.78;;;18.91;38.40
78509;BME280;67802;50.846;7.958;2023-11-19T01:26:05;97278.03;;;18.91;38.22
78509;BME280;67802;50.846;7.958;2023-11-19T01:28:31;97272.91;;;18.89;38.21
78509;BME280;67802;50.846;7.958;2023-11-19T01:30:56;97269.44;;;18.89;38.36
78509;BME280;67802;50.846;7.958;2023-11-19T01:33:22;97264.19;;;18.89;38.46
78509;BME280;67802;50.846;7.958;2023-11-19T01:35:47;97252.00;;;18.88;38.22
78509;BME280;67802;50.846;7.958;2023-11-19T01:38:12;97268.75;;;18.87;38.47
78509;BME280;67802;50.846;7.958;2023-11-19T01:40:38;97260.84;;;18.87;38.30
78509;BME280;67802;50.846;7.958;2023-11-19T01:43:03;97248.66;;;18.86;38.37
78509;BME280;67802;50.846;7.958;2023-11-19T01:45:30;97251.41;;;18.84;38.23
78509;BME280;67802;50.846;7.958;2023-11-19T01:47:57;97251.41;;;18.84;38.46
78509;BME280;67802;50.846;7.958;2023-11-19T01:50:23;97259.44;;;18.82;38.30
78509;BME280;67802;50.846;7.958;2023-11-19T01:52:51;97255.28;;;18.80;38.29
78509;BME280;67802;50.846;7.958;2023-11-19T01:55:17;97255.28;;;18.80;38.24
78509;BME280;67802;50.846;7.958;2023-11-19T02:00:15;97248.47;;;18.77;38.36
78509;BME280;67802;50.846;7.958;2023-11-19T02:02:41;97248.47;;;18.77;38.40
78509;BME280;67802;50.846;7.958;2023-11-19T02:05:09;97252.22;;;18.75;38.45
78509;BME280;67802;50.846;7.958;2023-11-19T02:07:34;97245.28;;;18.74;38.39
78509;BME280;67802;50.846;7.958;2023-11-19T02:09:59;97227.00;;;18.72;38.25
78509;BME280;67802;50.846;7.958;2023-11-19T02:12:27;97227.00;;;18.72;38.33
78509;BME280;67802;50.846;7.958;2023-11-19T02:14:59;97225.31;;;18.71;38.36
78509;BME280;67802;50.846;7.958;2023-11-19T02:17:31;97222.00;;;18.69;38.42
78509;BME280;67802;50.846;7.958;2023-11-19T02:19:57;97220.31;;;18.68;38.51
78509;BME280;67802;50.846;7.958;2023-11-19T02:22:23;97227.53;;;18.66;38.59
78509;BME280;67802;50.846;7.958;2023-11-19T02:24:51;97225.03;;;18.64;38.46
78509;BME280;67802;50.846;7.958;2023-11-19T02:27:28;97228.63;;;18.63;38.64
78509;BME280;67802;50.846;7.958;2023-11-19T02:29:56;97232.22;;;18.62;38.45
78509;BME280;67802;50.846;7.958;2023-11-19T02:32:23;97233.31;;;18.60;38.36
78509;BME280;67802;50.846;7.958;2023-11-19T02:34:48;97237.75;;;18.59;38.48
78509;BME280;67802;50.846;7.958;2023-11-19T02:37:13;97240.50;;;18.58;38.69
78509;BME280;67802;50.846;7.958;2023-11-19T02:39:40;97229.97;;;18.58;38.65
78509;BME280;67802;50.846;7.958;2023-11-19T02:42:07;97226.53;;;18.57;38.39
78509;BME280;67802;50.846;7.958;2023-11-19T02:44:33;97231.06;;;18.55;38.62
78509;BME280;67802;50.846;7.958;2023-11-19T02:46:59;97219.84;;;18.53;38.47
78509;BME280;67802;50.846;7.958;2023-11-19T02:49:24;97214.75;;;18.51;38.74
78509;BME280;67802;50.846;7.958;2023-11-19T02:51:50;97221.94;;;18.49;38.60
78509;BME280;67802;50.846;7.958;2023-11-19T02:54:15;97219.28;;;18.49;38.61
78509;BME280;67802;50.846;7.958;2023-11-19T02:56:42;97209.75;;;18.48;38.78
78509;BME280;67802;50.846;7.958;2023-11-19T02:59:08;97214.28;;;18.46;38.69
78509;BME280;67802;50.846;7.958;2023-11-19T03:01:37;97216.09;;;18.46;38.80
78509;BME280;67802;50.846;7.958;2023-11-19T03:04:02;97208.34;;;18.44;38.78
78509;BME280;67802;50.846;7.958;2023-11-19T03:06:29;97211.09;;;18.43;38.45
78509;BME280;67802;50.846;7.958;2023-11-19T03:08:54;97211.09;;;18.43;38.69
78509;BME280;67802;50.846;7.958;2023-11-19T03:11:20;97208.59;;;18.41;38.75
78509;BME280;67802;50.846;7.958;2023-11-19T03:13:45;97212.19;;;18.40;38.74
78509;BME280;67802;50.846;7.958;2023-11-19T03:16:12;97205.38;;;18.37;38.69
78509;BME280;67802;50.846;7.958;2023-11-19T03:18:37;97217.72;;;18.37;38.72
78509;BME280;67802;50.846;7.958;2023-11-19T03:21:05;97205.53;;;18.36;38.71
78509;BME280;67802;50.846;7.958;2023-11-19T03:23:30;97202.19;;;18.34;38.67
78509;BME280;67802;50.846;7.958;2023-11-19T03:25:56;97200.53;;;18.33;38.87
78509;BME280;67802;50.846;7.958;2023-11-19T03:28:22;97209.38;;;18.32;38.76
78509;BME280;67802;50.846;7.958;2023-11-19T03:30:47;97195.53;;;18.30;38.86
78509;BME280;67802;50.846;7.958;2023-11-19T03:33:12;97199.13;;;18.29;38.76
78509;BME280;67802;50.846;7.958;2023-11-19T03:35:37;97197.44;;;18.28;38.83
78509;BME280;67802;50.846;7.958;2023-11-19T03:38:03;97204.63;;;18.26;38.80
78509;BME280;67802;50.846;7.958;2023-11-19T03:40:28;97202.00;;;18.26;38.84
78509;BME280;67802;50.846;7.958;2023-11-19T03:42:56;97209.88;;;18.26;38.90
78509;BME280;67802;50.846;7.958;2023-11-19T03:45:23;97200.47;;;18.23;39.08
78509;BME280;67802;50.846;7.958;2023-11-19T03:47:48;97197.84;;;18.23;38.58
78509;BME280;67802;50.846;7.958;2023-11-19T03:50:15;97199.63;;;18.22;38.94
78509;BME280;67802;50.846;7.958;2023-11-19T03:52:41;97195.34;;;18.21;38.77
78509;BME280;67802;50.846;7.958;2023-11-19T03:55:07;97191.75;;;18.22;39.09
78509;BME280;67802;50.846;7.958;2023-11-19T03:57:34;97192.72;;;18.21;38.90
78509;BME280;67802;50.846;7.958;2023-11-19T03:59:59;97191.03;;;18.20;38.99
78509;BME280;67802;50.846;7.958;2023-11-19T04:02:25;97184.81;;;18.21;38.99
78509;BME280;67802;50.846;7.958;2023-11-19T04:04:53;97184.81;;;18.21;38.87
78509;BME280;67802;50.846;7.958;2023-11-19T04:07:19;97185.78;;;18.20;39.00
78509;BME280;67802;50.846;7.958;2023-11-19T04:09:44;97176.94;;;18.21;39.01
78509;BME280;67802;50.846;7.958;2023-11-19T04:12:11;97187.44;;;18.21;39.00
78509;BME280;67802;50.846;7.958;2023-11-19T04:14:37;97186.50;;;18.22;39.05
78509;BME280;67802;50.846;7.958;2023-11-19T04:17:02;97187.44;;;18.21;38.96
78509;BME280;67802;50.846;7.958;2023-11-19T04:19:27;97192.72;;;18.21;39.03
78509;BME280;67802;50.846;7.958;2023-11-19T04:21:53;97190.78;;;18.23;39.09
78509;BME280;67802;50.846;7.958;2023-11-19T04:24:18;97190.78;;;18.23;39.06
78509;BME280;67802;50.846;7.958;2023-11-19T04:26:44;97196.91;;;18.24;38.90
78509;BME280;67802;50.846;7.958;2023-11-19T04:29:12;97190.78;;;18.23;38.96
78509;BME280;67802;50.846;7.958;2023-11-19T04:31:38;97189.81;;;18.24;39.08
78509;BME280;67802;50.846;7.958;2023-11-19T04:34:04;97190.66;;;18.25;39.09
78509;BME280;67802;50.846;7.958;2023-11-19T04:36:29;97186.22;;;18.26;39.03
78509;BME280;67802;50.846;7.958;2023-11-19T04:38:55;97192.34;;;18.26;38.98
78509;BME280;67802;50.846;7.958;2023-11-19T04:41:21;97195.06;;;18.24;38.83
78509;BME280;67802;50.846;7.958;2023-11-19T04:43:46;97187.09;;;18.26;39.03
78509;BME280;67802;50.846;7.958;2023-11-19T04:46:11;97190.53;;;18.27;39.08
78509;BME280;67802;50.846;7.958;2023-11-19T04:48:36;97194.97;;;18.26;38.95
78509;BME280;67802;50.846;7.958;2023-11-19T04:51:04;97185.28;;;18.27;39.00
78509;BME280;67802;50.846;7.958;2023-11-19T04:53:30;97189.72;;;18.26;38.87
78509;BME280;67802;50.846;7.958;2023-11-19T04:55:55;97192.34;;;18.26;38.95
78509;BME280;67802;50.846;7.958;2023-11-19T04:58:21;97191.50;;;18.26;39.23
78509;BME280;67802;50.846;7.958;2023-11-19T05:00:46;97201.03;;;18.27;39.03
78509;BME280;67802;50.846;7.958;2023-11-19T05:03:11;97204.63;;;18.26;39.06
78509;BME280;67802;50.846;7.958;2023-11-19T05:05:36;97200.22;;;18.26;38.96
78509;BME280;67802;50.846;7.958;2023-11-19T05:08:02;97191.50;;;18.26;39.05
78509;BME280;67802;50.846;7.958;2023-11-19T05:10:27;97188.84;;;18.26;38.99
78509;BME280;67802;50.846;7.958;2023-11-19T05:12:53;97174.06;;;18.24;39.10
78509;BME280;67802;50.846;7.958;2023-11-19T05:15:18;97187.09;;;18.26;38.91
78509;BME280;67802;50.846;7.958;2023-11-19T05:17:43;97183.75;;;18.24;38.84
78509;BME280;67802;50.846;7.958;2023-11-19T05:20:10;97197.72;;;18.24;39.04
78509;BME280;67802;50.846;7.958;2023-11-19T05:22:40;97187.19;;;18.24;39.09
78509;BME280;67802;50.846;7.958;2023-11-19T05:25:06;97200.34;;;18.24;39.01
78509;BME280;67802;50.846;7.958;2023-11-19T05:27:31;97197.72;;;18.24;39.20
78509;BME280;67802;50.846;7.958;2023-11-19T05:29:56;97201.31;;;18.23;38.69
78509;BME280;67802;50.846;7.958;2023-11-19T05:32:22;97206.56;;;18.23;39.10
78509;BME280;67802;50.846;7.958;2023-11-19T05:34:47;97200.47;;;18.23;39.01
78509;BME280;67802;50.846;7.958;2023-11-19T05:37:12;97196.19;;;18.22;39.14
78509;BME280;67802;50.846;7.958;2023-11-19T05:39:37;97197.16;;;18.21;39.26
78509;BME280;67802;50.846;7.958;2023-11-19T05:42:03;97202.41;;;18.21;39.09
78509;BME280;67802;50.846;7.958;2023-11-19T05:44:28;97217.34;;;18.20;39.24
78509;BME280;67802;50.846;7.958;2023-11-19T05:46:54;97213.03;;;18.19;39.07
78509;BME280;67802;50.846;7.958;2023-11-19T05:49:19;97215.66;;;18.19;38.99
78509;BME280;67802;50.846;7.958;2023-11-19T05:51:44;97224.50;;;18.18;39.19
78509;BME280;67802;50.846;7.958;2023-11-19T05:54:11;97228.94;;;18.18;39.20
78509;BME280;67802;50.846;7.958;2023-11-19T05:56:37;97235.28;;;18.15;39.22
78509;BME280;67802;50.846;7.958;2023-11-19T05:59:02;97243.16;;;18.15;39.15
78509;BME280;67802;50.846;7.958;2023-11-19T06:01:33;97250.25;;;18.15;39.18
78509;BME280;67802;50.846;7.958;2023-11-19T06:03:59;97242.47;;;18.13;39.31
78509;BME280;67802;50.846;7.958;2023-11-19T06:06:26;97239.84;;;18.13;39.23
78509;BME280;67802;50.846;7.958;2023-11-19T06:08:51;97229.31;;;18.13;39.28
78509;BME280;67802;50.846;7.958;2023-11-19T06:11:16;97231.25;;;18.11;39.26
78509;BME280;67802;50.846;7.958;2023-11-19T06:13:45;97233.88;;;18.11;39.31
78509;BME280;67802;50.846;7.958;2023-11-19T06:16:10;97230.53;;;18.09;39.26
78509;BME280;67802;50.846;7.958;2023-11-19T06:18:38;97228.75;;;18.09;39.21
78509;BME280;67802;50.846;7.958;2023-11-19T06:21:04;97223.63;;;18.08;39.33
78509;BME280;67802;50.846;7.958;2023-11-19T06:23:29;97231.50;;;18.08;39.30
78509;BME280;67802;50.846;7.958;2023-11-19T06:25:54;97233.31;;;18.07;39.43
78509;BME280;67802;50.846;7.958;2023-11-19T06:28:20;97244.78;;;18.06;39.32
78509;BME280;67802;50.846;7.958;2023-11-19T06:30:45;97245.75;;;18.05;39.43
78509;BME280;67802;50.846;7.958;2023-11-19T06:33:13;97237.00;;;18.05;39.50
78509;BME280;67802;50.846;7.958;2023-11-19T06:35:39;97232.72;;;18.04;39.46
78509;BME280;67802;50.846;7.958;2023-11-19T06:38:04;97245.16;;;18.02;39.38
78509;BME280;67802;50.846;7.958;2023-11-19T06:40:30;97240.75;;;18.02;39.31
78509;BME280;67802;50.846;7.958;2023-11-19T06:42:56;97251.41;;;18.01;39.43
78509;BME280;67802;50.846;7.958;2023-11-19T06:45:22;97254.97;;;18.00;39.40
78509;BME280;67802;50.846;7.958;2023-11-19T06:47:47;97255.81;;;18.00;39.46
78509;BME280;67802;50.846;7.958;2023-11-19T06:50:12;97251.50;;;17.99;39.57
78509;BME280;67802;50.846;7.958;2023-11-19T06:52:38;97261.16;;;17.99;39.56
78509;BME280;67802;50.846;7.958;2023-11-19T06:55:04;97268.13;;;18.00;39.57
78509;BME280;67802;50.846;7.958;2023-11-19T06:57:30;97265.56;;;17.98;39.52
78509;BME280;67802;50.846;7.958;2023-11-19T06:59:57;97268.34;;;17.97;39.58
78509;BME280;67802;50.846;7.958;2023-11-19T07:02:22;97278.00;;;17.96;39.41
78509;BME280;67802;50.846;7.958;2023-11-19T07:04:48;97285.06;;;17.95;39.43
78509;BME280;67802;50.846;7.958;2023-11-19T07:07:13;97284.09;;;17.97;39.35
78509;BME280;67802;50.846;7.958;2023-11-19T07:09:40;97287.69;;;17.95;39.56
78509;BME280;67802;50.846;7.958;2023-11-19T07:12:05;97282.44;;;17.95;39.66
78509;BME280;67802;50.846;7.958;2023-11-19T07:14:30;97267.50;;;17.96;39.56
78509;BME280;67802;50.846;7.958;2023-11-19T07:16:56;97277.19;;;17.95;39.56
78509;BME280;67802;50.846;7.958;2023-11-19T07:19:21;97263.09;;;17.97;39.57
78509;BME280;67802;50.846;7.958;2023-11-19T07:21:46;97270.97;;;17.97;39.66
78509;BME280;67802;50.846;7.958;2023-11-19T07:24:12;97278.84;;;17.97;39.54
78509;BME280;67802;50.846;7.958;2023-11-19T07:26:44;97283.16;;;17.98;39.57
78509;BME280;67802;50.846;7.958;2023-11-19T07:29:09;97283.16;;;17.98;39.57
78509;BME280;67802;50.846;7.958;2023-11-19T07:31:35;97292.69;;;17.99;39.44
78509;BME280;67802;50.846;7.958;2023-11-19T07:34:00;97293.56;;;17.99;39.55
78509;BME280;67802;50.846;7.958;2023-11-19T07:36:25;97291.78;;;18.00;39.88
78509;BME280;67802;50.846;7.958;2023-11-19T07:38:51;97287.34;;;18.00;39.49
78509;BME280;67802;50.846;7.958;2023-11-19T07:41:16;97303.94;;;18.01;39.60
78509;BME280;67802;50.846;7.958;2023-11-19T07:43:44;97302.16;;;18.01;39.44
78509;BME280;67802;50.846;7.958;2023-11-19T07:46:11;97297.72;;;18.02;39.55
78509;BME280;67802;50.846;7.958;2023-11-19T07:48:40;97294.13;;;18.03;39.39
78509;BME280;67802;50.846;7.958;2023-11-19T07:51:06;97277.53;;;18.02;39.54
78509;BME280;67802;50.846;7.958;2023-11-19T07:53:31;97267.84;;;18.03;39.49
78509;BME280;67802;50.846;7.958;2023-11-19T07:55:58;97271.19;;;18.05;39.52
78509;BME280;67802;50.846;7.958;2023-11-19T07:58:24;97282.53;;;18.05;39.69
78509;BME280;67802;50.846;7.958;2023-11-19T08:03:15;97259.59;;;18.07;39.34
78509;BME280;67802;50.846;7.958;2023-11-19T08:05:41;97264.72;;;18.09;39.40
78509;BME280;67802;50.846;7.958;2023-11-19T08:08:06;97277.84;;;18.09;39.42
78509;BME280;67802;50.846;7.958;2023-11-19T08:10:32;97284.78;;;18.10;39.50
78509;BME280;67802;50.846;7.958;2023-11-19T08:12:58;97290.03;;;18.10;39.19
78509;BME280;67802;50.846;7.958;2023-11-19T08:15:23;97296.13;;;18.11;39.38
78509;BME280;67802;50.846;7.958;2023-11-19T08:17:49;97287.41;;;18.10;39.53
78509;BME280;67802;50.846;7.958;2023-11-19T08:20:14;97291.69;;;18.11;39.53
78509;BME280;67802;50.846;7.958;2023-11-19T08:22:40;97291.69;;;18.11;39.55
78509;BME280;67802;50.846;7.958;2023-11-19T08:25:05;97308.44;;;18.10;39.46
78509;BME280;67802;50.846;7.958;2023-11-19T08:27:31;97307.47;;;18.11;39.44
78509;BME280;67802;50.846;7.958;2023-11-19T08:29:56;97301.41;;;18.11;39.34
78509;BME280;67802;50.846;7.958;2023-11-19T08:32:31;97317.97;;;18.11;39.59
78509;BME280;67802;50.846;7.958;2023-11-19T08:34:56;97311.06;;;18.10;39.49
78509;BME280;67802;50.846;7.958;2023-11-19T08:37:21;97300.53;;;18.10;39.43
78509;BME280;67802;50.846;7.958;2023-11-19T08:39:47;97308.44;;;18.10;39.39
78509;BME280;67802;50.846;7.958;2023-11-19T08:42:13;97298.88;;;18.09;39.51
78509;BME280;67802;50.846;7.958;2023-11-19T08:44:39;97298.88;;;18.09;39.34
78509;BME280;67802;50.846;7.958;2023-11-19T08:47:04;97299.00;;;18.07;39.42
78509;BME280;67802;50.846;7.958;2023-11-19T08:49:29;97304.38;;;18.06;39.44
78509;BME280;67802;50.846;7.958;2023-11-19T08:51:55;97320.16;;;18.06;39.44
78509;BME280;67802;50.846;7.958;2023-11-19T08:54:20;97314.91;;;18.06;39.53
78509;BME280;67802;50.846;7.958;2023-11-19T08:56:46;97309.63;;;18.06;39.54
78509;BME280;67802;50.846;7.958;2023-11-19T08:59:12;97314.19;;;18.04;39.71
78509;BME280;67802;50.846;7.958;2023-11-19T09:01:37;97319.44;;;18.04;39.61
78509;BME280;67802;50.846;7.958;2023-11-19T09:04:02;97337.84;;;18.04;39.49
78509;BME280;67802;50.846;7.958;2023-11-19T09:06:28;97337.03;;;18.03;39.67
78509;BME280;67802;50.846;7.958;2023-11-19T09:08:53;97329.25;;;18.02;39.40
78509;BME280;67802;50.846;7.958;2023-11-19T09:11:23;97339.75;;;18.02;39.66
78509;BME280;67802;50.846;7.958;2023-11-19T09:13:49;97339.75;;;18.02;39.67
78509;BME280;67802;50.846;7.958;2023-11-19T09:16:14;97340.59;;;18.02;39.70
78509;BME280;67802;50.846;7.958;2023-11-19T09:18:40;97356.50;;;18.01;39.68
78509;BME280;67802;50.846;7.958;2023-11-19T09:21:06;97343.09;;;18.04;40.10
78509;BME280;67802;50.846;7.958;2023-11-19T09:23:32;97349.06;;;18.06;39.84
78509;BME280;67802;50.846;7.958;2023-11-19T09:26:01;97348.09;;;18.07;39.81
78509;BME280;67802;50.846;7.958;2023-11-19T09:28:26;97340.94;;;18.09;39.70
78509;BME280;67802;50.846;7.958;2023-11-19T09:30:52;97347.03;;;18.09;39.69
78509;BME280;67802;50.846;7.958;2023-11-19T09:33:17;97355.75;;;18.10;39.73
78509;BME280;67802;50.846;7.958;2023-11-19T09:35:42;97347.03;;;18.09;39.63
78509;BME280;67802;50.846;7.958;2023-11-19T09:38:08;97361.00;;;18.10;40.01
78509;BME280;67802;50.846;7.958;2023-11-19T09:40:33;97367.22;;;18.09;40.26
78509;BME280;67802;50.846;7.958;2023-11-19T09:42:59;97356.69;;;18.09;40.11
78509;BME280;67802;50.846;7.958;2023-11-19T09:45:27;97372.22;;;18.12;40.17
78509;BME280;67802;50.846;7.958;2023-11-19T09:47:53;97366.72;;;18.15;40.26
78509;BME280;67802;50.846;7.958;2023-11-19T09:50:20;97366.47;;;18.18;40.62
78509;BME280;67802;50.846;7.958;2023-11-19T09:52:46;97367.06;;;18.22;40.39
78509;BME280;67802;50.846;7.958;2023-11-19T09:55:12;97370.41;;;18.24;40.43
78509;BME280;67802;50.846;7.958;2023-11-19T09:57:40;97362.38;;;18.26;40.83
78509;BME280;67802;50.846;7.958;2023-11-19T10:00:10;97355.19;;;18.28;40.91
78509;BME280;67802;50.846;7.958;2023-11-19T10:02:37;97348.03;;;18.30;40.86
78509;BME280;67802;50.846;7.958;2023-11-19T10:05:06;97342.50;;;18.33;40.68
78509;BME280;67802;50.846;7.958;2023-11-19T10:07:32;97348.47;;;18.35;40.84
78509;BME280;67802;50.846;7.958;2023-11-19T10:10:01;97347.50;;;18.36;40.95
78509;BME280;67802;50.846;7.958;2023-11-19T10:12:29;97341.28;;;18.37;41.00
78509;BME280;67802;50.846;7.958;2023-11-19T10:14:57;97346.41;;;18.38;41.15
78509;BME280;67802;50.846;7.958;2023-11-19T10:17:33;97342.72;;;18.41;41.05
78509;BME280;67802;50.846;7.958;2023-11-19T10:19:59;97342.56;;;18.43;40.94
78509;BME280;67802;50.846;7.958;2023-11-19T10:22:24;97339.81;;;18.44;41.02
78509;BME280;67802;50.846;7.958;2023-11-19T10:24:52;97332.66;;;18.46;40.99
78509;BME280;67802;50.846;7.958;2023-11-19T10:27:18;97337.75;;;18.48;41.07
78509;BME280;67802;50.846;7.958;2023-11-19T10:29:47;97342.91;;;18.49;41.06
78509;BME280;67802;50.846;7.958;2023-11-19T10:32:13;97324.25;;;18.52;40.95
78509;BME280;67802;50.846;7.958;2023-11-19T10:34:40;97324.94;;;18.54;41.10
78509;BME280;67802;50.846;7.958;2023-11-19T10:37:06;97335.19;;;18.58;41.08
78509;BME280;67802;50.846;7.958;2023-11-19T10:39:51;97331.59;;;18.59;41.10
78509;BME280;67802;50.846;7.958;2023-11-19T10:42:16;97329.56;;;18.62;40.99
78509;BME280;67802;50.846;7.958;2023-11-19T10:44:42;97325.13;;;18.63;41.23
78509;BME280;67802;50.846;7.958;2023-11-19T10:47:08;97327.63;;;18.64;41.26
78509;BME280;67802;50.846;7.958;2023-11-19T10:49:35;97318.63;;;18.67;41.16
78509;BME280;67802;50.846;7.958;2023-11-19T10:52:01;97325.56;;;18.68;41.22
78509;BME280;67802;50.846;7.958;2023-11-19T10:54:27;97319.34;;;18.69;41.15
78509;BME280;67802;50.846;7.958;2023-11-19T10:56:58;97322.81;;;18.69;40.93
78509;BME280;67802;50.846;7.958;2023-11-19T10:59:25;97311.44;;;18.69;41.10
78509;BME280;67802;50.846;7.958;2023-11-19T11:01:53;97313.97;;;18.71;40.84
78509;BME280;67802;50.846;7.958;2023-11-19T11:04:23;97317.41;;;18.71;40.92
78509;BME280;67802;50.846;7.958;2023-11-19T11:06:50;97316.44;;;18.72;40.71
78509;BME280;67802;50.846;7.958;2023-11-19T11:09:16;97312.66;;;18.65;41.22
78509;BME280;67802;50.846;7.958;2023-11-19T11:11:48;97315.00;;;18.58;41.32
78509;BME280;67802;50.846;7.958;2023-11-19T11:14:16;97313.38;;;18.46;42.17
78509;BME280;67802;50.846;7.958;2023-11-19T11:16:43;97315.19;;;18.45;41.43
78509;BME280;67802;50.846;7.958;2023-11-19T11:19:10;97322.84;;;18.48;41.43
78509;BME280;67802;50.846;7.958;2023-11-19T11:21:38;97316.34;;;18.52;41.29
78509;BME280;67802;50.846;7.958;2023-11-19T11:24:32;97314.44;;;18.54;41.05
78509;BME280;67802;50.846;7.958;2023-11-19T11:27:22;97306.41;;;18.56;40.96
78509;BME280;67802;50.846;7.958;2023-11-19T11:38:34;97308.88;;;18.58;40.53
78509;BME280;67802;50.846;7.958;2023-11-19T11:41:22;97296.69;;;18.57;40.77
78509;BME280;67802;50.846;7.958;2023-11-19T11:43:48;97300.28;;;18.56;40.56
78509;BME280;67802;50.846;7.958;2023-11-19T11:49:02;97307.34;;;18.55;40.61
78509;BME280;67802;50.846;7.958;2023-11-19T11:54:09;97292.53;;;18.54;40.37
78509;BME280;67802;50.846;7.958;2023-11-19T11:56:37;97296.97;;;18.53;40.33
78509;BME280;67802;50.846;7.958;2023-11-19T11:59:07;97290.06;;;18.52;40.67
78509;BME280;67802;50.846;7.958;2023-11-19T12:01:32;97285.06;;;18.49;40.40
78509;BME280;67802;50.846;7.958;2023-11-19T12:03:58;97287.78;;;18.48;40.53
78509;BME280;67802;50.846;7.958;2023-11-19T12:06:23;97272.97;;;18.47;40.54
78509;BME280;67802;50.846;7.958;2023-11-19T12:08:49;97274.78;;;18.46;40.52
78509;BME280;67802;50.846;7.958;2023-11-19T12:11:16;97265.22;;;18.45;40.55
78509;BME280;67802;50.846;7.958;2023-11-19T12:13:53;97259.25;;;18.43;40.62
78509;BME280;67802;50.846;7.958;2023-11-19T12:16:21;97258.41;;;18.43;40.49
78509;BME280;67802;50.846;7.958;2023-11-19T12:18:47;97254.97;;;18.42;40.46
78509;BME280;67802;50.846;7.958;2023-11-19T12:21:27;97255.94;;;18.41;40.47
78509;BME280;67802;50.846;7.958;2023-11-19T12:23:54;97262.16;;;18.40;40.42
78509;BME280;67802;50.846;7.958;2023-11-19T12:26:33;97270.03;;;18.40;40.47
78509;BME280;67802;50.846;7.958;2023-11-19T12:29:00;97279.84;;;18.38;40.57
78509;BME280;67802;50.846;7.958;2023-11-19T12:31:26;97277.22;;;18.38;40.50
78509;BME280;67802;50.846;7.958;2023-11-19T12:33:51;97291.34;;;18.37;40.40
78509;BME280;67802;50.846;7.958;2023-11-19T12:36:17;97269.44;;;18.36;40.52
78509;BME280;67802;50.846;7.958;2023-11-19T12:38:43;97266.13;;;18.34;40.51
78509;BME280;67802;50.846;7.958;2023-11-19T12:41:10;97276.63;;;18.34;40.54
78509;BME280;67802;50.846;7.958;2023-11-19T12:43:37;97265.28;;;18.34;40.56
78509;BME280;67802;50.846;7.958;2023-11-19T12:46:17;97272.47;;;18.32;40.49
78509;BME280;67802;50.846;7.958;2023-11-19T12:48:42;97264.59;;;18.32;40.52
78509;BME280;67802;50.846;7.958;2023-11-19T12:51:07;97271.63;;;18.31;40.46
78509;BME280;67802;50.846;7.958;2023-11-19T12:53:47;97274.41;;;18.30;40.57
78509;BME280;67802;50.846;7.958;2023-11-19T12:56:13;97267.47;;;18.29;40.47
78509;BME280;67802;50.846;7.958;2023-11-19T12:58:39;97262.22;;;18.29;40.67
78509;BME280;67802;50.846;7.958;2023-11-19T13:01:06;97260.56;;;18.28;40.52
78509;BME280;67802;50.846;7.958;2023-11-19T13:03:34;97251.00;;;18.27;40.59
78509;BME280;67802;50.846;7.958;2023-11-19T13:08:39;97255.53;;;18.24;40.66
78509;BME280;67802;50.846;7.958;2023-11-19T13:11:05;97251.25;;;18.23;40.46
78509;BME280;67802;50.846;7.958;2023-11-19T13:13:31;97247.81;;;18.23;40.51
78509;BME280;67802;50.846;7.958;2023-11-19T13:16:04;97246.13;;;18.22;40.52
78509;BME280;67802;50.846;7.958;2023-11-19T13:18:34;97250.53;;;18.21;40.60